sensor_id;sensor_type;location;lat;lon;timestamp;temperature;humidity
45785;DHT22;31489;51.404;5.474;2023-12-07T00:00:40;5.80;76.30
45785;DHT22;31489;51.404;5.474;2023-12-07T00:03:05;5.80;76.30
45785;DHT22;31489;51.404;5.474;2023-12-07T00:05:34;5.80;76.30
45785;DHT22;31489;51.404;5.474;2023-12-07T00:07:59;5.80;76.40
45785;DHT22;31489;51.404;5.474;2023-12-07T00:10:25;5.80;76.30
45785;DHT22;31489;51.404;5.474;2023-12-07T00:12:51;5.70;76.30
45785;DHT22;31489;51.404;5.474;2023-12-07T00:15:16;5.70;76.30
45785;DHT22;31489;51.404;5.474;2023-12-07T00:17:42;5.70;76.30
45785;DHT22;31489;51.404;5.474;2023-12-07T00:20:08;5.70;76.30
45785;DHT22;31489;51.404;5.474;2023-12-07T00:22:34;5.70;76.30
45785;DHT22;31489;51.404;5.474;2023-12-07T00:25:00;5.70;76.20
45785;DHT22;31489;51.404;5.474;2023-12-07T00:27:25;5.70;76.30
45785;DHT22;31489;51.404;5.474;2023-12-07T00:29:51;5.70;76.30
45785;DHT22;31489;51.404;5.474;2023-12-07T00:32:17;5.70;76.30
45785;DHT22;31489;51.404;5.474;2023-12-07T00:34:43;5.70;76.20
45785;DHT22;31489;51.404;5.474;2023-12-07T00:37:08;5.60;76.10
45785;DHT22;31489;51.404;5.474;2023-12-07T00:39:35;5.60;76.10
45785;DHT22;31489;51.404;5.474;2023-12-07T00:42:01;5.60;76.10
45785;DHT22;31489;51.404;5.474;2023-12-07T00:44:27;5.60;76.20
45785;DHT22;31489;51.404;5.474;2023-12-07T00:46:53;5.60;76.20
45785;DHT22;31489;51.404;5.474;2023-12-07T00:49:18;5.60;76.20
45785;DHT22;31489;51.404;5.474;2023-12-07T00:51:44;5.60;76.20
45785;DHT22;31489;51.404;5.474;2023-12-07T00:54:10;5.60;76.10
45785;DHT22;31489;51.404;5.474;2023-12-07T00:56:35;5.50;76.10
45785;DHT22;31489;51.404;5.474;2023-12-07T00:59:02;5.50;76.20
45785;DHT22;31489;51.404;5.474;2023-12-07T01:01:28;5.50;76.20
45785;DHT22;31489;51.404;5.474;2023-12-07T01:03:54;5.50;76.10
45785;DHT22;31489;51.404;5.474;2023-12-07T01:06:20;5.50;76.30
45785;DHT22;31489;51.404;5.474;2023-12-07T01:08:45;5.50;76.30
45785;DHT22;31489;51.404;5.474;2023-12-07T01:11:11;5.50;76.30
45785;DHT22;31489;51.404;5.474;2023-12-07T01:13:37;5.50;76.20
45785;DHT22;31489;51.404;5.474;2023-12-07T01:16:03;5.50;76.10
45785;DHT22;31489;51.404;5.474;2023-12-07T01:18:28;5.40;76.10
45785;DHT22;31489;51.404;5.474;2023-12-07T01:20:54;5.40;76.20
45785;DHT22;31489;51.404;5.474;2023-12-07T01:23:20;5.40;76.30
45785;DHT22;31489;51.404;5.474;2023-12-07T01:25:46;5.40;76.30
45785;DHT22;31489;51.404;5.474;2023-12-07T01:28:12;5.40;76.40
45785;DHT22;31489;51.404;5.474;2023-12-07T01:30:37;5.40;76.30
45785;DHT22;31489;51.404;5.474;2023-12-07T01:33:03;5.40;76.30
45785;DHT22;31489;51.404;5.474;2023-12-07T01:35:29;5.40;76.40
45785;DHT22;31489;51.404;5.474;2023-12-07T01:37:55;5.40;76.50
45785;DHT22;31489;51.404;5.474;2023-12-07T01:40:20;5.40;76.90
45785;DHT22;31489;51.404;5.474;2023-12-07T01:42:50;5.40;77.40
45785;DHT22;31489;51.404;5.474;2023-12-07T01:45:16;5.40;77.80
45785;DHT22;31489;51.404;5.474;2023-12-07T01:47:42;5.50;78.20
45785;DHT22;31489;51.404;5.474;2023-12-07T01:50:09;5.50;78.50
45785;DHT22;31489;51.404;5.474;2023-12-07T01:52:45;5.50;78.80
45785;DHT22;31489;51.404;5.474;2023-12-07T01:55:12;5.50;79.00
45785;DHT22;31489;51.404;5.474;2023-12-07T01:57:38;5.60;79.00
45785;DHT22;31489;51.404;5.474;2023-12-07T02:00:04;5.60;79.00
45785;DHT22;31489;51.404;5.474;2023-12-07T02:02:31;5.60;79.00
45785;DHT22;31489;51.404;5.474;2023-12-07T02:04:58;5.60;78.90
45785;DHT22;31489;51.404;5.474;2023-12-07T02:07:23;5.60;78.90
45785;DHT22;31489;51.404;5.474;2023-12-07T02:09:49;5.60;79.00
45785;DHT22;31489;51.404;5.474;2023-12-07T02:12:15;5.70;79.10
45785;DHT22;31489;51.404;5.474;2023-12-07T02:14:41;5.70;79.20
45785;DHT22;31489;51.404;5.474;2023-12-07T02:22:52;5.70;79.30
45785;DHT22;31489;51.404;5.474;2023-12-07T02:25:19;5.60;79.20
45785;DHT22;31489;51.404;5.474;2023-12-07T02:27:46;5.60;79.70
45785;DHT22;31489;51.404;5.474;2023-12-07T02:30:12;5.60;79.10
45785;DHT22;31489;51.404;5.474;2023-12-07T02:32:40;5.60;79.10
45785;DHT22;31489;51.404;5.474;2023-12-07T02:35:07;5.60;79.10
45785;DHT22;31489;51.404;5.474;2023-12-07T02:37:47;5.60;79.00
45785;DHT22;31489;51.404;5.474;2023-12-07T02:40:19;5.60;79.00
45785;DHT22;31489;51.404;5.474;2023-12-07T02:42:46;5.50;78.90
45785;DHT22;31489;51.404;5.474;2023-12-07T02:45:12;5.50;79.00
45785;DHT22;31489;51.404;5.474;2023-12-07T02:47:39;5.50;79.20
45785;DHT22;31489;51.404;5.474;2023-12-07T02:50:05;5.40;79.20
45785;DHT22;31489;51.404;5.474;2023-12-07T02:52:31;5.40;79.20
45785;DHT22;31489;51.404;5.474;2023-12-07T02:54:57;5.40;79.30
45785;DHT22;31489;51.404;5.474;2023-12-07T02:57:23;5.30;79.20
45785;DHT22;31489;51.404;5.474;2023-12-07T02:59:48;5.30;79.20
45785;DHT22;31489;51.404;5.474;2023-12-07T03:02:14;5.30;79.30
45785;DHT22;31489;51.404;5.474;2023-12-07T03:04:39;5.30;79.40
45785;DHT22;31489;51.404;5.474;2023-12-07T03:07:05;5.30;79.60
45785;DHT22;31489;51.404;5.474;2023-12-07T03:09:31;5.20;79.80
45785;DHT22;31489;51.404;5.474;2023-12-07T03:11:56;5.20;79.90
45785;DHT22;31489;51.404;5.474;2023-12-07T03:14:22;5.20;79.90
45785;DHT22;31489;51.404;5.474;2023-12-07T03:16:48;5.30;79.90
45785;DHT22;31489;51.404;5.474;2023-12-07T03:19:13;5.30;79.90
45785;DHT22;31489;51.404;5.474;2023-12-07T03:21:42;5.30;79.90
45785;DHT22;31489;51.404;5.474;2023-12-07T03:24:09;5.30;79.80
45785;DHT22;31489;51.404;5.474;2023-12-07T03:26:35;5.30;79.90
45785;DHT22;31489;51.404;5.474;2023-12-07T03:29:01;5.30;79.90
45785;DHT22;31489;51.404;5.474;2023-12-07T03:31:27;5.30;79.80
45785;DHT22;31489;51.404;5.474;2023-12-07T03:33:54;5.30;79.60
45785;DHT22;31489;51.404;5.474;2023-12-07T03:36:20;5.30;79.40
45785;DHT22;31489;51.404;5.474;2023-12-07T03:38:45;5.30;79.30
45785;DHT22;31489;51.404;5.474;2023-12-07T03:41:11;5.30;79.30
45785;DHT22;31489;51.404;5.474;2023-12-07T03:43:37;5.20;79.40
45785;DHT22;31489;51.404;5.474;2023-12-07T03:46:06;5.20;79.50
45785;DHT22;31489;51.404;5.474;2023-12-07T03:48:33;5.20;79.40
45785;DHT22;31489;51.404;5.474;2023-12-07T03:50:59;5.20;79.30
45785;DHT22;31489;51.404;5.474;2023-12-07T03:53:25;5.10;79.30
45785;DHT22;31489;51.404;5.474;2023-12-07T03:55:51;5.10;79.40
45785;DHT22;31489;51.404;5.474;2023-12-07T03:58:17;5.10;79.50
45785;DHT22;31489;51.404;5.474;2023-12-07T04:00:44;5.00;79.60
45785;DHT22;31489;51.404;5.474;2023-12-07T04:03:10;5.00;79.80
45785;DHT22;31489;51.404;5.474;2023-12-07T04:05:36;5.00;79.80
45785;DHT22;31489;51.404;5.474;2023-12-07T04:08:01;4.90;79.70
45785;DHT22;31489;51.404;5.474;2023-12-07T04:10:27;4.90;80.00
45785;DHT22;31489;51.404;5.474;2023-12-07T04:12:53;4.90;80.10
45785;DHT22;31489;51.404;5.474;2023-12-07T04:15:19;4.90;80.20
45785;DHT22;31489;51.404;5.474;2023-12-07T04:17:45;4.90;80.30
45785;DHT22;31489;51.404;5.474;2023-12-07T04:20:11;4.90;80.40
45785;DHT22;31489;51.404;5.474;2023-12-07T04:22:38;4.90;80.40
45785;DHT22;31489;51.404;5.474;2023-12-07T04:25:04;4.90;80.30
45785;DHT22;31489;51.404;5.474;2023-12-07T04:27:31;4.90;80.30
45785;DHT22;31489;51.404;5.474;2023-12-07T04:29:57;4.90;80.40
45785;DHT22;31489;51.404;5.474;2023-12-07T04:32:23;4.90;80.50
45785;DHT22;31489;51.404;5.474;2023-12-07T04:34:49;5.00;80.60
45785;DHT22;31489;51.404;5.474;2023-12-07T04:37:15;5.00;80.60
45785;DHT22;31489;51.404;5.474;2023-12-07T04:39:41;5.00;80.70
45785;DHT22;31489;51.404;5.474;2023-12-07T04:42:06;5.00;80.70
45785;DHT22;31489;51.404;5.474;2023-12-07T04:44:32;5.00;80.60
45785;DHT22;31489;51.404;5.474;2023-12-07T04:46:58;5.10;80.80
45785;DHT22;31489;51.404;5.474;2023-12-07T04:49:24;5.10;80.80
45785;DHT22;31489;51.404;5.474;2023-12-07T04:51:49;5.10;80.80
45785;DHT22;31489;51.404;5.474;2023-12-07T04:54:15;5.10;80.70
45785;DHT22;31489;51.404;5.474;2023-12-07T04:56:41;5.20;80.80
45785;DHT22;31489;51.404;5.474;2023-12-07T04:59:09;5.10;80.80
45785;DHT22;31489;51.404;5.474;2023-12-07T05:01:35;5.20;81.00
45785;DHT22;31489;51.404;5.474;2023-12-07T05:04:02;5.20;81.10
45785;DHT22;31489;51.404;5.474;2023-12-07T05:06:29;5.20;81.10
45785;DHT22;31489;51.404;5.474;2023-12-07T05:08:55;5.20;81.00
45785;DHT22;31489;51.404;5.474;2023-12-07T05:11:20;5.20;81.00
45785;DHT22;31489;51.404;5.474;2023-12-07T05:13:46;5.20;81.00
45785;DHT22;31489;51.404;5.474;2023-12-07T05:16:13;5.20;81.10
45785;DHT22;31489;51.404;5.474;2023-12-07T05:18:39;5.20;81.00
45785;DHT22;31489;51.404;5.474;2023-12-07T05:21:05;5.20;81.00
45785;DHT22;31489;51.404;5.474;2023-12-07T05:23:30;5.30;81.00
45785;DHT22;31489;51.404;5.474;2023-12-07T05:25:56;5.20;80.90
45785;DHT22;31489;51.404;5.474;2023-12-07T05:28:22;5.30;81.10
45785;DHT22;31489;51.404;5.474;2023-12-07T05:30:48;5.20;81.20
45785;DHT22;31489;51.404;5.474;2023-12-07T05:33:14;5.30;81.20
45785;DHT22;31489;51.404;5.474;2023-12-07T05:35:40;5.30;81.20
45785;DHT22;31489;51.404;5.474;2023-12-07T05:38:05;5.30;81.20
45785;DHT22;31489;51.404;5.474;2023-12-07T05:40:31;5.30;81.30
45785;DHT22;31489;51.404;5.474;2023-12-07T05:42:57;5.30;81.30
45785;DHT22;31489;51.404;5.474;2023-12-07T05:45:22;5.30;81.30
45785;DHT22;31489;51.404;5.474;2023-12-07T05:47:48;5.30;81.30
45785;DHT22;31489;51.404;5.474;2023-12-07T05:50:14;5.30;81.30
45785;DHT22;31489;51.404;5.474;2023-12-07T05:52:39;5.30;81.20
45785;DHT22;31489;51.404;5.474;2023-12-07T05:55:05;5.30;81.30
45785;DHT22;31489;51.404;5.474;2023-12-07T05:57:31;5.40;81.50
45785;DHT22;31489;51.404;5.474;2023-12-07T05:59:57;5.40;81.40
45785;DHT22;31489;51.404;5.474;2023-12-07T06:02:22;5.40;81.30
45785;DHT22;31489;51.404;5.474;2023-12-07T06:04:48;5.40;81.40
45785;DHT22;31489;51.404;5.474;2023-12-07T06:07:13;5.40;81.40
45785;DHT22;31489;51.404;5.474;2023-12-07T06:09:40;5.40;81.40
45785;DHT22;31489;51.404;5.474;2023-12-07T06:12:06;5.40;81.40
45785;DHT22;31489;51.404;5.474;2023-12-07T06:14:32;5.40;81.40
45785;DHT22;31489;51.404;5.474;2023-12-07T06:16:58;5.50;81.50
45785;DHT22;31489;51.404;5.474;2023-12-07T06:19:24;5.50;81.50
45785;DHT22;31489;51.404;5.474;2023-12-07T06:21:50;5.50;81.50
45785;DHT22;31489;51.404;5.474;2023-12-07T06:24:16;5.50;81.50
45785;DHT22;31489;51.404;5.474;2023-12-07T06:26:41;5.60;81.60
45785;DHT22;31489;51.404;5.474;2023-12-07T06:29:07;5.60;81.60
45785;DHT22;31489;51.404;5.474;2023-12-07T06:31:33;5.60;81.60
45785;DHT22;31489;51.404;5.474;2023-12-07T06:33:58;5.60;81.60
45785;DHT22;31489;51.404;5.474;2023-12-07T06:36:25;5.60;81.70
45785;DHT22;31489;51.404;5.474;2023-12-07T06:38:52;5.60;81.60
45785;DHT22;31489;51.404;5.474;2023-12-07T06:41:18;5.70;82.20
45785;DHT22;31489;51.404;5.474;2023-12-07T06:43:44;5.70;81.60
45785;DHT22;31489;51.404;5.474;2023-12-07T06:46:13;5.70;81.60
45785;DHT22;31489;51.404;5.474;2023-12-07T06:48:40;5.70;81.50
45785;DHT22;31489;51.404;5.474;2023-12-07T06:51:06;5.80;81.50
45785;DHT22;31489;51.404;5.474;2023-12-07T06:53:31;5.80;81.60
45785;DHT22;31489;51.404;5.474;2023-12-07T06:55:57;5.80;81.60
45785;DHT22;31489;51.404;5.474;2023-12-07T06:58:23;5.80;81.60
45785;DHT22;31489;51.404;5.474;2023-12-07T07:00:49;5.80;81.60
45785;DHT22;31489;51.404;5.474;2023-12-07T07:03:16;5.90;81.50
45785;DHT22;31489;51.404;5.474;2023-12-07T07:05:42;5.90;81.50
45785;DHT22;31489;51.404;5.474;2023-12-07T07:08:08;5.90;81.50
45785;DHT22;31489;51.404;5.474;2023-12-07T07:10:34;5.90;81.50
45785;DHT22;31489;51.404;5.474;2023-12-07T07:13:01;5.90;81.50
45785;DHT22;31489;51.404;5.474;2023-12-07T07:15:32;5.90;81.50
45785;DHT22;31489;51.404;5.474;2023-12-07T07:17:58;5.90;81.60
45785;DHT22;31489;51.404;5.474;2023-12-07T07:20:24;6.00;81.70
45785;DHT22;31489;51.404;5.474;2023-12-07T07:22:49;6.00;81.60
45785;DHT22;31489;51.404;5.474;2023-12-07T07:25:15;6.00;81.50
45785;DHT22;31489;51.404;5.474;2023-12-07T07:27:42;6.00;81.50
45785;DHT22;31489;51.404;5.474;2023-12-07T07:30:08;6.00;81.40
45785;DHT22;31489;51.404;5.474;2023-12-07T07:32:34;6.00;81.30
45785;DHT22;31489;51.404;5.474;2023-12-07T07:35:00;6.00;81.20
45785;DHT22;31489;51.404;5.474;2023-12-07T07:37:25;6.00;81.10
45785;DHT22;31489;51.404;5.474;2023-12-07T07:39:51;5.90;81.10
45785;DHT22;31489;51.404;5.474;2023-12-07T07:42:17;5.90;81.10
45785;DHT22;31489;51.404;5.474;2023-12-07T07:44:42;5.90;81.20
45785;DHT22;31489;51.404;5.474;2023-12-07T07:47:08;5.80;81.90
45785;DHT22;31489;51.404;5.474;2023-12-07T07:49:34;5.80;81.50
45785;DHT22;31489;51.404;5.474;2023-12-07T07:51:59;5.80;81.50
45785;DHT22;31489;51.404;5.474;2023-12-07T07:54:25;5.90;81.60
45785;DHT22;31489;51.404;5.474;2023-12-07T07:56:51;5.80;81.60
45785;DHT22;31489;51.404;5.474;2023-12-07T07:59:17;5.90;81.60
45785;DHT22;31489;51.404;5.474;2023-12-07T08:01:42;5.90;81.60
45785;DHT22;31489;51.404;5.474;2023-12-07T08:04:09;5.80;81.60
45785;DHT22;31489;51.404;5.474;2023-12-07T08:06:35;5.90;81.80
45785;DHT22;31489;51.404;5.474;2023-12-07T08:09:01;5.90;81.90
45785;DHT22;31489;51.404;5.474;2023-12-07T08:11:26;5.90;81.90
45785;DHT22;31489;51.404;5.474;2023-12-07T08:13:52;5.90;81.90
45785;DHT22;31489;51.404;5.474;2023-12-07T08:16:18;5.90;81.90
45785;DHT22;31489;51.404;5.474;2023-12-07T08:18:44;5.90;81.80
45785;DHT22;31489;51.404;5.474;2023-12-07T08:21:20;6.00;81.90
45785;DHT22;31489;51.404;5.474;2023-12-07T08:23:45;6.00;81.90
45785;DHT22;31489;51.404;5.474;2023-12-07T08:26:11;6.00;81.90
45785;DHT22;31489;51.404;5.474;2023-12-07T08:28:39;6.00;82.00
45785;DHT22;31489;51.404;5.474;2023-12-07T08:31:05;6.00;82.00
45785;DHT22;31489;51.404;5.474;2023-12-07T08:33:32;6.10;82.00
45785;DHT22;31489;51.404;5.474;2023-12-07T08:36:00;6.10;82.00
45785;DHT22;31489;51.404;5.474;2023-12-07T08:38:25;6.10;82.00
45785;DHT22;31489;51.404;5.474;2023-12-07T08:40:51;6.10;81.80
45785;DHT22;31489;51.404;5.474;2023-12-07T08:43:19;6.10;81.70
45785;DHT22;31489;51.404;5.474;2023-12-07T08:45:46;6.20;81.80
45785;DHT22;31489;51.404;5.474;2023-12-07T08:48:11;6.20;81.90
45785;DHT22;31489;51.404;5.474;2023-12-07T08:50:37;6.20;81.90
45785;DHT22;31489;51.404;5.474;2023-12-07T08:53:02;6.20;81.90
45785;DHT22;31489;51.404;5.474;2023-12-07T08:55:28;6.20;81.90
45785;DHT22;31489;51.404;5.474;2023-12-07T08:57:55;6.30;82.00
45785;DHT22;31489;51.404;5.474;2023-12-07T09:00:20;6.30;82.60
45785;DHT22;31489;51.404;5.474;2023-12-07T09:02:49;6.30;81.80
45785;DHT22;31489;51.404;5.474;2023-12-07T09:05:15;6.30;82.40
45785;DHT22;31489;51.404;5.474;2023-12-07T09:07:41;6.30;81.80
45785;DHT22;31489;51.404;5.474;2023-12-07T09:10:07;6.40;81.90
45785;DHT22;31489;51.404;5.474;2023-12-07T09:12:33;6.40;81.90
45785;DHT22;31489;51.404;5.474;2023-12-07T09:15:01;6.40;81.90
45785;DHT22;31489;51.404;5.474;2023-12-07T09:17:28;6.50;81.90
45785;DHT22;31489;51.404;5.474;2023-12-07T09:19:53;6.50;81.90
45785;DHT22;31489;51.404;5.474;2023-12-07T09:22:19;6.50;81.90
45785;DHT22;31489;51.404;5.474;2023-12-07T09:24:45;6.60;82.00
45785;DHT22;31489;51.404;5.474;2023-12-07T09:27:15;6.60;82.10
45785;DHT22;31489;51.404;5.474;2023-12-07T09:29:40;6.60;82.00
45785;DHT22;31489;51.404;5.474;2023-12-07T09:32:07;6.70;81.90
45785;DHT22;31489;51.404;5.474;2023-12-07T09:34:33;6.70;82.00
45785;DHT22;31489;51.404;5.474;2023-12-07T09:37:09;6.80;82.10
45785;DHT22;31489;51.404;5.474;2023-12-07T09:39:35;6.80;82.00
45785;DHT22;31489;51.404;5.474;2023-12-07T09:42:01;6.90;81.90
45785;DHT22;31489;51.404;5.474;2023-12-07T09:44:28;7.00;81.90
45785;DHT22;31489;51.404;5.474;2023-12-07T09:46:54;7.00;81.90
45785;DHT22;31489;51.404;5.474;2023-12-07T09:49:23;7.10;81.90
45785;DHT22;31489;51.404;5.474;2023-12-07T09:51:49;7.10;81.90
45785;DHT22;31489;51.404;5.474;2023-12-07T09:54:16;7.20;82.30
45785;DHT22;31489;51.404;5.474;2023-12-07T09:56:43;7.40;83.10
45785;DHT22;31489;51.404;5.474;2023-12-07T09:59:09;7.60;82.90
45785;DHT22;31489;51.404;5.474;2023-12-07T10:01:34;7.80;83.10
45785;DHT22;31489;51.404;5.474;2023-12-07T10:04:19;8.10;83.50
45785;DHT22;31489;51.404;5.474;2023-12-07T10:06:45;8.50;82.90
45785;DHT22;31489;51.404;5.474;2023-12-07T10:09:11;8.90;83.80
45785;DHT22;31489;51.404;5.474;2023-12-07T10:11:38;9.30;83.20
45785;DHT22;31489;51.404;5.474;2023-12-07T10:14:08;9.80;83.10
45785;DHT22;31489;51.404;5.474;2023-12-07T10:16:34;10.20;82.70
45785;DHT22;31489;51.404;5.474;2023-12-07T10:19:14;10.70;82.50
45785;DHT22;31489;51.404;5.474;2023-12-07T10:21:43;11.20;80.00
45785;DHT22;31489;51.404;5.474;2023-12-07T10:24:09;11.60;81.00
45785;DHT22;31489;51.404;5.474;2023-12-07T10:26:35;12.00;79.20
45785;DHT22;31489;51.404;5.474;2023-12-07T10:29:05;12.30;78.90
45785;DHT22;31489;51.404;5.474;2023-12-07T10:31:31;12.60;77.90
45785;DHT22;31489;51.404;5.474;2023-12-07T10:33:58;12.90;77.30
45785;DHT22;31489;51.404;5.474;2023-12-07T10:36:25;13.20;76.80
45785;DHT22;31489;51.404;5.474;2023-12-07T10:38:52;13.50;76.30
45785;DHT22;31489;51.404;5.474;2023-12-07T10:41:22;13.80;75.80
45785;DHT22;31489;51.404;5.474;2023-12-07T10:43:53;14.10;74.70
45785;DHT22;31489;51.404;5.474;2023-12-07T10:46:22;14.30;74.10
45785;DHT22;31489;51.404;5.474;2023-12-07T10:48:50;14.60;73.00
45785;DHT22;31489;51.404;5.474;2023-12-07T10:51:41;14.80;73.00
45785;DHT22;31489;51.404;5.474;2023-12-07T10:54:07;15.10;69.90
45785;DHT22;31489;51.404;5.474;2023-12-07T10:56:43;15.20;71.00
45785;DHT22;31489;51.404;5.474;2023-12-07T10:59:10;15.30;68.40
45785;DHT22;31489;51.404;5.474;2023-12-07T11:01:40;15.30;69.20
45785;DHT22;31489;51.404;5.474;2023-12-07T11:04:12;15.30;68.60
45785;DHT22;31489;51.404;5.474;2023-12-07T11:06:42;15.30;68.60
45785;DHT22;31489;51.404;5.474;2023-12-07T11:09:17;15.30;68.30
45785;DHT22;31489;51.404;5.474;2023-12-07T11:12:01;15.40;67.60
45785;DHT22;31489;51.404;5.474;2023-12-07T11:14:28;15.40;66.40
45785;DHT22;31489;51.404;5.474;2023-12-07T11:16:56;15.50;68.60
45785;DHT22;31489;51.404;5.474;2023-12-07T11:22:02;15.70;66.00
45785;DHT22;31489;51.404;5.474;2023-12-07T11:24:28;15.80;67.70
45785;DHT22;31489;51.404;5.474;2023-12-07T11:26:55;16.00;67.60
45785;DHT22;31489;51.404;5.474;2023-12-07T11:29:30;16.00;66.60
45785;DHT22;31489;51.404;5.474;2023-12-07T11:31:56;16.20;65.00
45785;DHT22;31489;51.404;5.474;2023-12-07T11:37:05;16.30;69.40
45785;DHT22;31489;51.404;5.474;2023-12-07T11:39:40;16.30;66.40
45785;DHT22;31489;51.404;5.474;2023-12-07T11:42:18;16.20;63.40
45785;DHT22;31489;51.404;5.474;2023-12-07T11:44:48;16.20;64.90
45785;DHT22;31489;51.404;5.474;2023-12-07T11:47:18;16.00;64.20
45785;DHT22;31489;51.404;5.474;2023-12-07T11:49:45;16.00;64.60
45785;DHT22;31489;51.404;5.474;2023-12-07T11:52:19;16.00;64.90
45785;DHT22;31489;51.404;5.474;2023-12-07T11:54:49;16.00;64.20
45785;DHT22;31489;51.404;5.474;2023-12-07T11:57:15;16.10;64.40
45785;DHT22;31489;51.404;5.474;2023-12-07T11:59:43;16.20;65.10
45785;DHT22;31489;51.404;5.474;2023-12-07T12:02:10;16.30;64.20
45785;DHT22;31489;51.404;5.474;2023-12-07T12:04:36;16.30;63.40
45785;DHT22;31489;51.404;5.474;2023-12-07T12:07:03;16.20;63.30
45785;DHT22;31489;51.404;5.474;2023-12-07T12:09:29;16.10;62.60
45785;DHT22;31489;51.404;5.474;2023-12-07T12:11:56;16.00;62.30
45785;DHT22;31489;51.404;5.474;2023-12-07T12:14:26;15.90;61.20
45785;DHT22;31489;51.404;5.474;2023-12-07T12:16:52;15.60;61.00
45785;DHT22;31489;51.404;5.474;2023-12-07T12:19:18;15.40;60.50
45785;DHT22;31489;51.404;5.474;2023-12-07T12:21:43;15.10;60.70
45785;DHT22;31489;51.404;5.474;2023-12-07T12:24:10;14.80;60.90
45785;DHT22;31489;51.404;5.474;2023-12-07T12:26:39;14.40;61.20
45785;DHT22;31489;51.404;5.474;2023-12-07T12:29:08;14.20;61.50
45785;DHT22;31489;51.404;5.474;2023-12-07T12:31:35;13.90;61.80
45785;DHT22;31489;51.404;5.474;2023-12-07T12:34:01;13.60;62.60
45785;DHT22;31489;51.404;5.474;2023-12-07T12:36:27;13.50;63.20
45785;DHT22;31489;51.404;5.474;2023-12-07T12:38:54;13.20;63.70
45785;DHT22;31489;51.404;5.474;2023-12-07T12:41:21;13.10;64.30
45785;DHT22;31489;51.404;5.474;2023-12-07T12:43:48;13.00;64.50
45785;DHT22;31489;51.404;5.474;2023-12-07T12:46:15;12.90;64.70
45785;DHT22;31489;51.404;5.474;2023-12-07T12:48:59;12.90;65.00
45785;DHT22;31489;51.404;5.474;2023-12-07T12:51:29;12.80;65.20
45785;DHT22;31489;51.404;5.474;2023-12-07T12:53:58;12.80;65.50
45785;DHT22;31489;51.404;5.474;2023-12-07T12:56:26;12.80;65.70
45785;DHT22;31489;51.404;5.474;2023-12-07T12:58:53;12.80;66.20
45785;DHT22;31489;51.404;5.474;2023-12-07T13:01:22;12.90;66.50
45785;DHT22;31489;51.404;5.474;2023-12-07T13:03:48;13.00;67.00
45785;DHT22;31489;51.404;5.474;2023-12-07T13:06:15;13.10;66.50
45785;DHT22;31489;51.404;5.474;2023-12-07T13:08:44;13.20;66.10
45785;DHT22;31489;51.404;5.474;2023-12-07T13:11:15;13.30;65.70
45785;DHT22;31489;51.404;5.474;2023-12-07T13:13:41;13.30;64.90
45785;DHT22;31489;51.404;5.474;2023-12-07T13:16:07;13.20;65.30
45785;DHT22;31489;51.404;5.474;2023-12-07T13:18:32;13.20;65.00
45785;DHT22;31489;51.404;5.474;2023-12-07T13:20:58;13.10;64.90
45785;DHT22;31489;51.404;5.474;2023-12-07T13:23:25;12.90;65.50
45785;DHT22;31489;51.404;5.474;2023-12-07T13:25:51;12.80;64.70
45785;DHT22;31489;51.404;5.474;2023-12-07T13:28:16;12.70;64.90
45785;DHT22;31489;51.404;5.474;2023-12-07T13:30:42;12.50;65.00
45785;DHT22;31489;51.404;5.474;2023-12-07T13:33:07;12.30;65.20
45785;DHT22;31489;51.404;5.474;2023-12-07T13:35:34;12.20;65.20
45785;DHT22;31489;51.404;5.474;2023-12-07T13:38:00;12.00;65.30
45785;DHT22;31489;51.404;5.474;2023-12-07T13:40:25;11.90;65.60
45785;DHT22;31489;51.404;5.474;2023-12-07T13:42:52;11.80;65.80
45785;DHT22;31489;51.404;5.474;2023-12-07T13:45:18;11.60;66.10
45785;DHT22;31489;51.404;5.474;2023-12-07T13:47:43;11.50;66.30
45785;DHT22;31489;51.404;5.474;2023-12-07T13:50:10;11.40;66.60
45785;DHT22;31489;51.404;5.474;2023-12-07T13:52:37;11.30;66.70
45785;DHT22;31489;51.404;5.474;2023-12-07T13:55:03;11.10;66.70
45785;DHT22;31489;51.404;5.474;2023-12-07T13:57:30;11.10;67.10
45785;DHT22;31489;51.404;5.474;2023-12-07T13:59:56;10.90;67.40
45785;DHT22;31489;51.404;5.474;2023-12-07T14:02:22;10.90;67.70
45785;DHT22;31489;51.404;5.474;2023-12-07T14:04:49;10.80;68.00
45785;DHT22;31489;51.404;5.474;2023-12-07T14:07:19;10.80;68.20
45785;DHT22;31489;51.404;5.474;2023-12-07T14:09:49;10.70;68.40
45785;DHT22;31489;51.404;5.474;2023-12-07T14:12:15;10.70;68.60
45785;DHT22;31489;51.404;5.474;2023-12-07T14:14:42;10.60;68.60
45785;DHT22;31489;51.404;5.474;2023-12-07T14:17:10;10.50;68.60
45785;DHT22;31489;51.404;5.474;2023-12-07T14:19:35;10.40;68.90
45785;DHT22;31489;51.404;5.474;2023-12-07T14:22:01;10.40;69.10
45785;DHT22;31489;51.404;5.474;2023-12-07T14:24:27;10.30;69.30
45785;DHT22;31489;51.404;5.474;2023-12-07T14:26:56;10.20;69.50
45785;DHT22;31489;51.404;5.474;2023-12-07T14:29:21;10.20;69.70
45785;DHT22;31489;51.404;5.474;2023-12-07T14:31:48;10.10;69.80
45785;DHT22;31489;51.404;5.474;2023-12-07T14:34:14;10.10;70.00
45785;DHT22;31489;51.404;5.474;2023-12-07T14:36:40;10.00;70.10
45785;DHT22;31489;51.404;5.474;2023-12-07T14:39:13;10.00;70.30
45785;DHT22;31489;51.404;5.474;2023-12-07T14:41:49;10.00;70.40
45785;DHT22;31489;51.404;5.474;2023-12-07T14:44:16;9.90;70.40
45785;DHT22;31489;51.404;5.474;2023-12-07T14:46:43;9.90;70.60
45785;DHT22;31489;51.404;5.474;2023-12-07T14:49:10;9.90;70.70
45785;DHT22;31489;51.404;5.474;2023-12-07T14:51:35;9.80;70.70
45785;DHT22;31489;51.404;5.474;2023-12-07T14:54:01;9.80;70.80
45785;DHT22;31489;51.404;5.474;2023-12-07T14:56:27;9.80;70.90
45785;DHT22;31489;51.404;5.474;2023-12-07T14:58:52;9.70;70.90
45785;DHT22;31489;51.404;5.474;2023-12-07T15:01:18;9.70;71.00
45785;DHT22;31489;51.404;5.474;2023-12-07T15:03:44;9.70;71.10
45785;DHT22;31489;51.404;5.474;2023-12-07T15:06:10;9.70;71.20
45785;DHT22;31489;51.404;5.474;2023-12-07T15:08:36;9.60;71.10
45785;DHT22;31489;51.404;5.474;2023-12-07T15:11:02;9.60;71.10
45785;DHT22;31489;51.404;5.474;2023-12-07T15:13:29;9.60;71.20
45785;DHT22;31489;51.404;5.474;2023-12-07T15:15:54;9.50;71.20
45785;DHT22;31489;51.404;5.474;2023-12-07T15:18:20;9.50;71.30
45785;DHT22;31489;51.404;5.474;2023-12-07T15:20:46;9.50;71.30
45785;DHT22;31489;51.404;5.474;2023-12-07T15:23:11;9.40;71.40
45785;DHT22;31489;51.404;5.474;2023-12-07T15:25:37;9.40;71.40
45785;DHT22;31489;51.404;5.474;2023-12-07T15:28:02;9.40;71.50
45785;DHT22;31489;51.404;5.474;2023-12-07T15:30:28;9.30;71.40
45785;DHT22;31489;51.404;5.474;2023-12-07T15:32:55;9.30;71.40
45785;DHT22;31489;51.404;5.474;2023-12-07T15:35:20;9.20;71.40
45785;DHT22;31489;51.404;5.474;2023-12-07T15:37:47;9.20;71.50
45785;DHT22;31489;51.404;5.474;2023-12-07T15:40:12;9.20;71.50
45785;DHT22;31489;51.404;5.474;2023-12-07T15:42:39;9.20;71.60
45785;DHT22;31489;51.404;5.474;2023-12-07T15:45:08;9.10;71.60
45785;DHT22;31489;51.404;5.474;2023-12-07T15:47:33;9.10;71.60
45785;DHT22;31489;51.404;5.474;2023-12-07T15:49:59;9.00;71.60